North Sioux City, SD

10:36 AM CDT on October 25, 2014 (GMT -0500)
McCook Lake SD | Change Station
CLOSE
Current Station
Personal Weather Station
Location: McCook Lake, SD
Elevation: 1114 ft
Nearby Weather Stations

Elev 1114 ft 42.54 °N, 96.51 °W | Updated 6 seconds ago

Clear
Clear
54.4 °F
Feels Like 54.4 °F
N
4.0
Wind Variable Wind from NW
Gusts 6.0 mph

Today
High -- | Low -- °F
--% Chance of Precip.
Yesterday
High -- | Low -- °F
Precip. -- in
7:51 AM 6:28 PM
Waxing Crescent, 3% visible
Pressure 30.15 in
Visibility 10.0 miles
Clouds Clear
Dew Point 48 °F
Humidity 79%
Rainfall 0.00 in
Snow Depth Not available.
UV 1 out of 12
Pollen 1.30 out of 12
Air Quality Not available.
Flu Activity Sporadic
METAR KSUX 251452Z 33003KT 10SM CLR 12/07 A3014 RMK AO2 SLP208 T01170072 51016

More Conditions Fewer Conditions

Pressure 30.15 in
Visibility 10.0 miles
Clouds Clear
Dew Point 48 °F
Humidity 79%
Rainfall 0.00 in
Snow Depth Not available.
UV 1 out of 12
Pollen 1.30 out of 12
Air Quality Not available.
Flu Activity Sporadic
METAR KSUX 251452Z 33003KT 10SM CLR 12/07 A3014 RMK AO2 SLP208 T01170072 51016

More Conditions Fewer Conditions

10-Day Weather Forecast

Almanac

Astronomy

Oct. 25, 2014 Rise Set
Actual Time 7:51 AM CDT 6:28 PM CDT
Civil Twilight 7:22 AM CDT 6:57 PM CDT
Nautical Twilight 6:49 AM CDT 7:30 PM CDT
Astronomical Twilight 6:16 AM CDT 8:02 PM CDT
Moon 9:32 AM CDT 7:50 PM CDT
Length of Visible Light 11h 35m
Length of Day
10h 37m
Tomorrow will be 2m 39s shorter.
Waxing Crescent, 3% of the Moon is Illuminated
Today
Waxing Crescent
Oct 30
First Quarter
Nov 6
Full
Nov 14
Last Quarter
Nov 22
New

Today's Extremes

State Highs State Lows

Community

WunderPhotos

Upload Photos

1,764,878 photos uploaded!

Nearby

Snow Depth

Station Depth Elevation
North Rapid Creek 1 in 6130 ft
Blind Park 0 in 6890 ft

Earthquake Activity

City Distance Mag. Time & Date
No recent earthquake activity has been reported nearby.
Minimum magnitude displayed is 2.5.

Coastal Water Temperatures

Place Temperature
No Stations Reporting

Nearby Weather Stations